Time;durP1;ratioP1;P1;durP2;ratioP2;P2;SDS_P1;SDS_P2;PMS_P1;PMS_P2;Temp;Humidity;BMP_temperature;BMP_pressure;BME280_temperature;BME280_humidity;BME280_pressure;Samples;Min_cycle;Max_cycle;Signal;HPM_P1;HPM_P2
2022/07/22 00:00:17;;;;;;;3.13;1.70;;;;;;;33.35;25.00;98233.56;5039075;28;20087;-86
2022/07/22 00:02:43;;;;;;;3.20;1.42;;;;;;;33.29;25.04;98222.09;5037929;28;20390;-86
2022/07/22 00:05:10;;;;;;;4.28;1.55;;;;;;;33.64;24.33;98224.19;5037612;28;20029;-86
2022/07/22 00:07:38;;;;;;;1.63;1.45;;;;;;;34.01;24.09;98225.19;5036211;28;20029;-86
2022/07/22 00:10:07;;;;;;;2.05;1.20;;;;;;;34.33;23.38;98232.59;5034896;28;20117;-86
2022/07/22 00:12:33;;;;;;;2.40;1.20;;;;;;;34.65;23.08;98230.66;5030258;28;20041;-85
2022/07/22 00:15:00;;;;;;;2.55;1.50;;;;;;;34.94;22.86;98235.34;5036472;28;20029;-85
2022/07/22 00:17:26;;;;;;;1.50;1.20;;;;;;;35.12;22.75;98240.72;5043845;28;20044;-85
2022/07/22 00:19:52;;;;;;;1.90;1.33;;;;;;;35.15;22.98;98248.28;5037991;28;20037;-85
2022/07/22 00:22:18;;;;;;;1.90;1.20;;;;;;;35.15;22.48;98245.44;5037471;28;20056;-85
2022/07/22 00:24:44;;;;;;;1.77;1.27;;;;;;;35.03;22.83;98252.31;5036212;28;20021;-86
2022/07/22 00:27:10;;;;;;;2.30;1.52;;;;;;;34.91;22.73;98250.63;5034150;28;20040;-85
2022/07/22 00:29:36;;;;;;;2.58;1.50;;;;;;;34.53;23.67;98238.31;5036533;28;20481;-86
2022/07/22 00:32:03;;;;;;;2.10;1.52;;;;;;;34.07;24.59;98240.34;5033528;28;20559;-85
2022/07/22 00:34:29;;;;;;;2.28;1.48;;;;;;;34.17;24.25;98246.69;5035685;28;20035;-86
2022/07/22 00:36:55;;;;;;;2.40;1.20;;;;;;;33.95;24.17;98241.44;5034479;28;20060;-85
2022/07/22 00:39:22;;;;;;;2.03;1.10;;;;;;;33.98;24.03;98246.16;5036406;28;20029;-85
2022/07/22 00:41:48;;;;;;;2.53;1.42;;;;;;;34.20;23.83;98240.75;5034852;28;20033;-86
2022/07/22 00:44:15;;;;;;;1.80;1.48;;;;;;;34.13;23.98;98232.63;5035631;28;20497;-85
2022/07/22 00:46:41;;;;;;;3.28;2.08;;;;;;;33.92;24.04;98231.03;5033070;28;20033;-85
2022/07/22 00:49:08;;;;;;;1.38;1.10;;;;;;;34.07;23.93;98229.69;5035671;28;20065;-86
2022/07/22 00:51:37;;;;;;;2.97;1.38;;;;;;;34.16;24.20;98222.31;5035865;28;20045;-86
2022/07/22 00:54:04;;;;;;;1.90;1.17;;;;;;;34.05;24.55;98231.50;5034900;28;20039;-86
2022/07/22 00:56:30;;;;;;;3.15;1.40;;;;;;;33.80;24.66;98221.56;5035863;28;20531;-85
2022/07/22 00:58:59;;;;;;;1.40;1.17;;;;;;;33.26;25.37;98223.06;5039170;28;20421;-86
2022/07/22 01:01:26;;;;;;;1.70;1.45;;;;;;;33.40;25.12;98227.94;5037446;28;20025;-86
2022/07/22 01:03:52;;;;;;;2.35;1.30;;;;;;;33.50;24.82;98227.81;5032509;28;20039;-86
2022/07/22 01:06:18;;;;;;;4.20;2.00;;;;;;;33.74;24.65;98217.06;5032773;28;20068;-86
2022/07/22 01:08:45;;;;;;;1.63;1.40;;;;;;;34.00;24.46;98229.34;5034516;28;20037;-86
2022/07/22 01:11:13;;;;;;;1.45;1.17;;;;;;;34.01;23.98;98230.88;5038278;28;20032;-85
2022/07/22 01:13:40;;;;;;;5.18;1.50;;;;;;;33.94;24.30;98232.09;5035713;28;20033;-86
2022/07/22 01:16:07;;;;;;;3.05;1.50;;;;;;;33.90;24.55;98222.22;5034531;28;20040;-86
2022/07/22 01:18:34;;;;;;;3.08;1.88;;;;;;;33.95;24.45;98239.38;5035147;28;20115;-86
2022/07/22 01:21:00;;;;;;;3.60;1.40;;;;;;;33.64;24.63;98233.50;5035067;28;20432;-86
2022/07/22 01:23:27;;;;;;;1.95;1.20;;;;;;;33.49;24.65;98234.81;5034256;28;20065;-86
2022/07/22 01:25:53;;;;;;;1.65;1.38;;;;;;;33.53;24.88;98247.59;5035336;28;20038;-85
2022/07/22 01:28:20;;;;;;;1.90;1.70;;;;;;;33.66;24.45;98242.34;5035501;28;20386;-85
2022/07/22 01:30:46;;;;;;;1.55;1.45;;;;;;;33.92;24.21;98237.53;5035847;28;20091;-86
2022/07/22 01:33:12;;;;;;;2.92;1.70;;;;;;;33.94;23.91;98234.16;5033105;28;20395;-85
2022/07/22 01:35:38;;;;;;;2.70;1.33;;;;;;;33.98;24.02;98237.59;5036847;28;20477;-86
2022/07/22 01:38:06;;;;;;;1.60;1.25;;;;;;;33.72;24.56;98236.72;5033831;28;20116;-85
2022/07/22 01:40:32;;;;;;;3.25;1.55;;;;;;;33.68;24.51;98236.16;5041511;28;20022;-85
2022/07/22 01:42:58;;;;;;;3.30;1.42;;;;;;;33.86;24.27;98233.03;5035549;28;20033;-86
2022/07/22 01:45:24;;;;;;;2.70;2.05;;;;;;;33.99;23.95;98228.56;5036944;28;20449;-86
2022/07/22 01:47:51;;;;;;;2.22;1.10;;;;;;;34.11;23.55;98234.41;5034120;28;20108;-85
2022/07/22 01:50:17;;;;;;;2.60;2.00;;;;;;;34.20;23.59;98237.91;5037122;28;20029;-85
2022/07/22 01:52:43;;;;;;;1.40;1.30;;;;;;;34.22;23.72;98237.38;5031436;28;20437;-86
2022/07/22 01:55:10;;;;;;;2.78;1.92;;;;;;;34.03;24.14;98260.50;5031983;28;20033;-85
2022/07/22 01:57:37;;;;;;;5.18;2.03;;;;;;;33.18;25.29;98273.16;5036544;28;20128;-85
2022/07/22 02:00:06;;;;;;;4.55;2.13;;;;;;;32.06;26.69;98274.31;5029765;28;20029;-85
2022/07/22 02:02:32;;;;;;;4.30;2.97;;;;;;;31.89;27.58;98276.75;5033354;28;20034;-86
2022/07/22 02:04:58;;;;;;;4.68;1.90;;;;;;;31.85;27.60;98267.63;5033594;28;20044;-86
2022/07/22 02:07:25;;;;;;;3.05;2.20;;;;;;;32.23;26.53;98271.81;5031930;28;20516;-86
2022/07/22 02:09:52;;;;;;;3.08;1.55;;;;;;;32.15;26.07;98262.88;5033727;28;20026;-85
2022/07/22 02:12:18;;;;;;;1.65;1.52;;;;;;;31.49;27.55;98267.03;5034283;28;20072;-85
2022/07/22 02:14:45;;;;;;;3.67;1.92;;;;;;;31.84;27.34;98262.41;5015759;28;20032;-85
2022/07/22 02:17:11;;;;;;;3.40;1.92;;;;;;;32.47;26.16;98249.81;5035670;28;20025;-85
2022/07/22 02:19:38;;;;;;;3.67;1.50;;;;;;;32.92;25.57;98262.81;5037621;28;20033;-85
2022/07/22 02:22:04;;;;;;;2.75;1.85;;;;;;;33.07;25.20;98258.72;5015406;28;20025;-85
2022/07/22 02:24:31;;;;;;;2.47;1.95;;;;;;;33.24;24.97;98259.00;5034551;28;20033;-86
2022/07/22 02:26:57;;;;;;;2.15;1.33;;;;;;;33.37;24.66;98268.03;5037322;28;20029;-86
2022/07/22 02:29:23;;;;;;;4.22;1.60;;;;;;;33.44;24.49;98270.47;5032008;28;20448;-85
2022/07/22 02:31:49;;;;;;;3.17;1.65;;;;;;;33.53;24.69;98276.06;5031774;28;20037;-85
2022/07/22 02:34:15;;;;;;;1.50;1.35;;;;;;;33.61;24.49;98282.16;5038111;28;20435;-85
2022/07/22 02:36:41;;;;;;;2.10;1.38;;;;;;;33.53;24.45;98266.72;5033220;28;20037;-85
2022/07/22 02:39:07;;;;;;;2.72;1.75;;;;;;;33.28;24.91;98277.44;5011819;28;20044;-85
2022/07/22 02:41:34;;;;;;;3.00;1.50;;;;;;;32.92;25.02;98277.84;5036285;28;20461;-85
2022/07/22 02:44:00;;;;;;;3.20;1.38;;;;;;;32.71;25.36;98274.09;5039457;28;20167;-85
2022/07/22 02:46:30;;;;;;;2.55;1.45;;;;;;;32.94;25.04;98278.13;5035597;28;20048;-85
2022/07/22 02:48:56;;;;;;;1.80;1.33;;;;;;;33.23;24.71;98280.22;5036891;28;20029;-85
2022/07/22 02:51:22;;;;;;;2.70;1.20;;;;;;;33.39;24.53;98285.38;5011630;28;20107;-85
2022/07/22 02:53:48;;;;;;;3.13;1.38;;;;;;;33.48;24.52;98288.13;5035697;28;20034;-85
2022/07/22 02:56:15;;;;;;;2.08;1.35;;;;;;;33.28;24.69;98282.38;5027754;28;20474;-85
2022/07/22 02:58:42;;;;;;;4.70;1.35;;;;;;;33.22;24.68;98292.88;5035667;28;20064;-85
2022/07/22 03:01:08;;;;;;;2.60;1.30;;;;;;;33.42;24.13;98287.25;5039296;28;20179;-85
2022/07/22 03:03:34;;;;;;;1.73;1.42;;;;;;;33.56;23.90;98292.16;5040299;28;20068;-85
2022/07/22 03:06:01;;;;;;;1.75;1.30;;;;;;;33.65;24.08;98294.09;5040084;28;20037;-85
2022/07/22 03:08:27;;;;;;;2.35;1.50;;;;;;;33.69;24.13;98303.22;5028783;28;20600;-85
2022/07/22 03:10:54;;;;;;;2.03;1.73;;;;;;;33.49;24.21;98298.25;5031912;28;20517;-85
2022/07/22 03:13:20;;;;;;;1.58;1.35;;;;;;;33.47;24.26;98306.47;5027042;28;20044;-85
2022/07/22 03:15:46;;;;;;;3.47;1.48;;;;;;;33.56;24.23;98314.94;5037945;28;20156;-85
2022/07/22 03:18:13;;;;;;;1.67;1.10;;;;;;;33.68;24.35;98318.75;5036606;28;20417;-85
2022/07/22 03:20:39;;;;;;;1.88;1.40;;;;;;;33.65;24.42;98325.44;5034818;28;20033;-85
2022/07/22 03:23:05;;;;;;;1.90;1.50;;;;;;;33.59;24.55;98319.66;5035518;28;20382;-85
2022/07/22 03:25:32;;;;;;;2.60;1.25;;;;;;;33.59;24.95;98322.50;5041245;28;20060;-85
2022/07/22 03:27:58;;;;;;;3.33;1.73;;;;;;;33.68;24.75;98325.22;5039390;28;20045;-85
2022/07/22 03:30:24;;;;;;;3.05;1.70;;;;;;;33.53;24.91;98327.31;5035071;28;20039;-85
2022/07/22 03:32:51;;;;;;;3.33;1.83;;;;;;;33.53;24.84;98330.16;5037323;28;20034;-85
2022/07/22 03:35:17;;;;;;;2.10;1.85;;;;;;;33.60;25.00;98320.44;5037089;28;20037;-85
2022/07/22 03:37:43;;;;;;;5.38;1.80;;;;;;;33.55;25.40;98324.75;5037284;28;20120;-85
2022/07/22 03:40:10;;;;;;;2.67;1.85;;;;;;;33.53;25.10;98326.53;5042584;28;20024;-85
2022/07/22 03:42:36;;;;;;;3.17;2.47;;;;;;;33.60;25.50;98321.22;5034247;28;20124;-85
2022/07/22 03:45:03;;;;;;;3.30;1.88;;;;;;;33.69;25.70;98323.16;5039597;28;20033;-85
2022/07/22 03:47:29;;;;;;;2.47;1.85;;;;;;;33.85;25.28;98329.13;5037632;28;20116;-85
2022/07/22 03:49:56;;;;;;;3.88;2.00;;;;;;;33.98;24.90;98323.84;5033466;28;20091;-85
2022/07/22 03:52:23;;;;;;;3.25;2.67;;;;;;;34.28;25.33;98324.56;5033283;28;20483;-85
2022/07/22 03:54:49;;;;;;;3.05;2.15;;;;;;;34.52;24.89;98322.28;5035920;28;20022;-85
2022/07/22 03:57:15;;;;;;;3.88;2.28;;;;;;;34.56;25.12;98324.94;5035012;28;20037;-85
2022/07/22 03:59:41;;;;;;;3.92;2.75;;;;;;;34.12;25.32;98336.53;5038972;28;20064;-85
2022/07/22 04:02:07;;;;;;;6.18;2.75;;;;;;;34.19;25.90;98330.41;5039885;28;20051;-85
2022/07/22 04:04:33;;;;;;;4.68;3.00;;;;;;;34.52;25.38;98339.41;5037800;28;20039;-85
2022/07/22 04:06:59;;;;;;;5.65;2.80;;;;;;;34.65;25.54;98334.13;5033947;28;20029;-85
2022/07/22 04:09:25;;;;;;;4.20;3.33;;;;;;;34.85;25.69;98336.16;5034809;28;20045;-86
2022/07/22 04:11:51;;;;;;;5.15;2.70;;;;;;;35.10;25.34;98335.41;5037388;28;20044;-85
2022/07/22 04:14:17;;;;;;;4.90;2.80;;;;;;;35.55;25.10;98336.63;5034545;28;20021;-85
2022/07/22 04:16:44;;;;;;;4.53;2.88;;;;;;;36.21;24.11;98353.50;5036467;28;20033;-85
2022/07/22 04:19:11;;;;;;;4.97;2.75;;;;;;;36.57;24.04;98346.91;5031029;28;20030;-85
2022/07/22 04:21:37;;;;;;;3.67;2.83;;;;;;;36.59;23.88;98343.56;5031567;28;20095;-84
2022/07/22 04:24:04;;;;;;;4.47;2.60;;;;;;;37.02;24.02;98345.00;5037376;28;20038;-85
2022/07/22 04:26:30;;;;;;;3.17;2.22;;;;;;;37.01;23.21;98343.47;5035535;28;20025;-85
2022/07/22 04:28:56;;;;;;;3.03;2.70;;;;;;;37.34;23.75;98348.47;5038175;28;20034;-86
2022/07/22 04:31:23;;;;;;;5.25;2.83;;;;;;;37.39;23.29;98342.75;5037159;28;20060;-85
2022/07/22 04:33:49;;;;;;;4.00;2.55;;;;;;;37.46;23.45;98352.91;5030329;28;20041;-85
2022/07/22 04:36:15;;;;;;;5.93;3.40;;;;;;;37.54;23.20;98348.22;5033685;28;20128;-84
2022/07/22 04:38:41;;;;;;;5.57;2.70;;;;;;;37.65;23.21;98351.09;5032357;28;20033;-86
2022/07/22 04:41:07;;;;;;;4.85;2.88;;;;;;;37.82;22.97;98346.16;5032646;28;20041;-86
2022/07/22 04:43:33;;;;;;;2.85;2.30;;;;;;;38.23;23.24;98346.34;5031830;28;20394;-84
2022/07/22 04:45:59;;;;;;;3.42;2.22;;;;;;;38.40;22.44;98352.84;5032812;28;20091;-85
2022/07/22 04:48:25;;;;;;;2.17;1.83;;;;;;;38.58;22.48;98354.34;5017675;28;20116;-85
2022/07/22 04:50:51;;;;;;;3.20;2.47;;;;;;;38.69;22.50;98351.44;5036575;28;20044;-84
2022/07/22 04:53:17;;;;;;;2.35;2.15;;;;;;;38.47;22.14;98349.41;5035320;28;20090;-87
2022/07/22 04:55:44;;;;;;;2.03;1.77;;;;;;;38.79;22.60;98355.56;5037939;28;20030;-85
2022/07/22 04:58:10;;;;;;;2.22;1.80;;;;;;;38.63;22.10;98356.41;5033558;28;20099;-85
2022/07/22 05:00:36;;;;;;;2.45;2.20;;;;;;;38.86;21.92;98351.38;5033666;28;20029;-83
2022/07/22 05:03:02;;;;;;;2.45;2.25;;;;;;;38.85;22.29;98355.56;5041999;28;20049;-85
2022/07/22 05:05:28;;;;;;;2.33;2.00;;;;;;;39.11;22.50;98358.81;5040350;28;20112;-86
2022/07/22 05:07:54;;;;;;;4.13;2.30;;;;;;;39.24;21.57;98354.03;5037540;28;20024;-86
2022/07/22 05:10:20;;;;;;;2.60;2.40;;;;;;;39.42;21.57;98343.22;5037664;28;20160;-85
2022/07/22 05:12:46;;;;;;;4.43;1.90;;;;;;;39.41;21.53;98350.25;5038025;28;20041;-88
2022/07/22 05:15:12;;;;;;;2.50;1.92;;;;;;;39.37;21.64;98339.81;5043794;28;20028;-86
2022/07/22 05:17:38;;;;;;;2.65;1.98;;;;;;;39.31;22.11;98346.94;5035781;28;20029;-84
2022/07/22 05:20:05;;;;;;;2.50;2.10;;;;;;;39.74;22.14;98347.94;5030009;28;20037;-84
2022/07/22 05:22:31;;;;;;;1.65;1.45;;;;;;;39.93;21.76;98343.00;5033939;28;20037;-84
2022/07/22 05:24:57;;;;;;;1.98;1.88;;;;;;;39.90;21.15;98346.19;5031199;28;20549;-85
2022/07/22 05:27:24;;;;;;;2.75;2.10;;;;;;;39.97;21.28;98342.72;5033103;28;20037;-84
2022/07/22 05:29:50;;;;;;;2.40;2.20;;;;;;;39.96;22.14;98344.03;5032863;28;20029;-84
2022/07/22 05:32:16;;;;;;;3.35;2.00;;;;;;;39.70;21.13;98349.53;5033974;28;20039;-84
2022/07/22 05:34:42;;;;;;;2.20;2.00;;;;;;;39.78;21.41;98342.66;5034134;28;20048;-85
2022/07/22 05:37:08;;;;;;;2.30;1.95;;;;;;;39.61;21.48;98344.88;5034022;28;20033;-84
2022/07/22 05:39:34;;;;;;;3.13;2.53;;;;;;;39.28;21.60;98342.28;5031229;28;20052;-85
2022/07/22 05:42:00;;;;;;;2.58;2.38;;;;;;;38.40;22.70;98343.44;5012739;28;20518;-85
2022/07/22 05:44:27;;;;;;;2.55;2.35;;;;;;;38.45;23.01;98345.50;5018985;28;20032;-85
2022/07/22 05:46:53;;;;;;;2.58;2.20;;;;;;;38.40;22.94;98355.72;5033866;28;20049;-84
2022/07/22 05:49:19;;;;;;;2.67;2.47;;;;;;;38.15;23.10;98356.00;5033191;28;20041;-85
2022/07/22 05:51:46;;;;;;;3.72;2.83;;;;;;;37.50;23.84;98350.59;5033767;28;20038;-85
2022/07/22 05:54:12;;;;;;;3.83;3.10;;;;;;;37.66;23.88;98346.94;5033677;28;20028;-85
2022/07/22 05:56:38;;;;;;;7.32;3.20;;;;;;;37.82;23.63;98351.91;5033927;28;20072;-85
2022/07/22 05:59:04;;;;;;;4.63;3.10;;;;;;;37.32;24.06;98354.69;5033497;28;20045;-85
2022/07/22 06:01:30;;;;;;;5.15;2.90;;;;;;;37.89;23.60;98348.50;5032537;28;20495;-85
2022/07/22 06:03:56;;;;;;;3.45;2.75;;;;;;;38.36;23.09;98346.59;5034501;28;20484;-85
2022/07/22 06:06:22;;;;;;;3.38;2.80;;;;;;;38.62;22.72;98349.91;5042192;28;20075;-84
2022/07/22 06:08:48;;;;;;;4.07;3.13;;;;;;;38.04;23.48;98349.00;5033437;28;20040;-84
2022/07/22 06:11:15;;;;;;;5.25;3.63;;;;;;;37.56;23.85;98356.31;5033498;28;20087;-85
2022/07/22 06:13:41;;;;;;;5.35;3.45;;;;;;;37.10;24.16;98348.16;5032231;28;20091;-85
2022/07/22 06:16:07;;;;;;;4.10;3.70;;;;;;;37.52;23.92;98350.84;5032281;28;20385;-85
2022/07/22 06:18:33;;;;;;;5.30;3.40;;;;;;;37.24;23.94;98347.94;5033227;28;20029;-83
2022/07/22 06:20:59;;;;;;;6.70;3.97;;;;;;;37.51;23.65;98351.38;5032374;28;20481;-85
2022/07/22 06:23:25;;;;;;;5.95;4.00;;;;;;;37.45;23.63;98353.44;5033169;28;20061;-84
2022/07/22 06:25:51;;;;;;;4.40;4.00;;;;;;;37.95;23.80;98351.38;5033244;28;20545;-81
2022/07/22 06:28:17;;;;;;;4.20;3.80;;;;;;;38.32;23.18;98359.66;5033144;28;20030;-81
2022/07/22 06:30:43;;;;;;;4.15;3.85;;;;;;;38.64;23.00;98367.38;5033215;28;20021;-80
2022/07/22 06:33:10;;;;;;;5.63;4.25;;;;;;;38.38;22.82;98355.47;5032590;28;20036;-80
2022/07/22 06:35:40;;;;;;;4.43;4.07;;;;;;;38.36;22.54;98360.16;5033287;28;20017;-80
2022/07/22 06:38:06;;;;;;;5.00;3.50;;;;;;;37.66;23.30;98343.28;5032263;28;20053;-81
2022/07/22 06:40:33;;;;;;;5.25;3.88;;;;;;;38.46;23.19;98347.84;5041003;28;20021;-80
2022/07/22 06:42:59;;;;;;;11.70;4.95;;;;;;;38.73;22.75;98340.47;5036348;28;20116;-81
2022/07/22 06:45:25;;;;;;;4.28;3.88;;;;;;;38.88;22.40;98340.94;5033168;28;20037;-80
2022/07/22 06:47:52;;;;;;;3.92;3.53;;;;;;;38.91;22.49;98341.97;5033120;28;20059;-80
2022/07/22 06:50:18;;;;;;;3.90;3.53;;;;;;;39.32;21.99;98334.13;5033142;28;20079;-80
2022/07/22 06:52:44;;;;;;;4.72;3.53;;;;;;;39.53;21.56;98323.78;5033317;28;20040;-80
2022/07/22 06:55:10;;;;;;;3.55;3.05;;;;;;;39.89;22.20;98325.28;5038193;28;20029;-79
2022/07/22 06:57:36;;;;;;;3.67;3.38;;;;;;;40.23;21.44;98333.59;5032646;28;20061;-81
2022/07/22 07:00:07;;;;;;;3.47;3.00;;;;;;;39.87;21.11;98330.00;5032905;28;20025;-80
2022/07/22 07:02:33;;;;;;;3.35;3.05;;;;;;;39.95;21.07;98322.38;5026830;28;20038;-80
2022/07/22 07:04:59;;;;;;;2.90;2.58;;;;;;;40.00;21.65;98339.53;5032105;28;20109;-80
2022/07/22 07:07:26;;;;;;;2.90;2.60;;;;;;;40.25;21.44;98336.72;5032873;28;20060;-80
2022/07/22 07:09:52;;;;;;;3.13;2.78;;;;;;;40.46;20.71;98337.81;5039716;28;20029;-81
2022/07/22 07:12:18;;;;;;;3.45;2.67;;;;;;;40.67;20.63;98339.63;5037300;28;20047;-80
2022/07/22 07:14:44;;;;;;;2.60;2.40;;;;;;;40.50;20.52;98339.06;5032903;28;20060;-80
2022/07/22 07:17:10;;;;;;;3.30;2.75;;;;;;;40.69;20.70;98341.97;5033210;28;20058;-81
2022/07/22 07:19:36;;;;;;;3.47;3.17;;;;;;;40.16;20.93;98334.19;5032394;28;20045;-80
2022/07/22 07:22:02;;;;;;;2.38;2.13;;;;;;;39.20;22.52;98327.69;5032032;28;20029;-79
2022/07/22 07:24:28;;;;;;;4.00;2.85;;;;;;;39.59;22.04;98330.28;5040854;28;20044;-80
2022/07/22 07:26:54;;;;;;;3.78;3.30;;;;;;;40.02;22.19;98333.31;5032851;28;20029;-80
2022/07/22 07:29:22;;;;;;;4.30;3.22;;;;;;;39.95;22.06;98325.25;5032366;28;20033;-80
2022/07/22 07:31:48;;;;;;;3.60;3.17;;;;;;;40.03;22.10;98319.72;5032679;28;20556;-80
2022/07/22 07:34:14;;;;;;;3.40;3.17;;;;;;;40.34;20.92;98324.81;5032956;28;20061;-81
2022/07/22 07:36:41;;;;;;;2.92;2.70;;;;;;;40.02;21.19;98336.19;5030438;28;20029;-81
2022/07/22 07:39:07;;;;;;;3.95;3.40;;;;;;;40.34;21.85;98333.47;5014148;28;20109;-81
2022/07/22 07:41:33;;;;;;;3.45;3.17;;;;;;;40.78;20.68;98332.16;5032544;28;20029;-81
2022/07/22 07:44:00;;;;;;;5.22;3.47;;;;;;;41.09;20.75;98340.13;5015586;28;20128;-81
2022/07/22 07:46:26;;;;;;;3.22;2.90;;;;;;;41.34;20.73;98338.72;5035530;28;20041;-82
2022/07/22 07:48:52;;;;;;;4.35;3.33;;;;;;;41.24;20.74;98335.41;5036317;28;20033;-81
2022/07/22 07:51:18;;;;;;;3.63;3.15;;;;;;;41.19;21.35;98341.28;5035615;28;20113;-82
2022/07/22 07:53:45;;;;;;;4.63;2.97;;;;;;;41.67;20.89;98334.50;5035492;28;20111;-81
2022/07/22 07:56:11;;;;;;;2.55;2.38;;;;;;;41.96;20.40;98331.41;5034192;28;20492;-82
2022/07/22 07:58:37;;;;;;;4.93;3.85;;;;;;;41.29;20.56;98342.47;5035094;28;20054;-81
2022/07/22 08:01:03;;;;;;;5.97;4.30;;;;;;;40.95;20.93;98350.00;5034089;28;20025;-81
2022/07/22 08:03:29;;;;;;;4.18;3.42;;;;;;;41.02;20.98;98327.13;5031143;28;20045;-82
2022/07/22 08:05:57;;;;;;;3.95;3.65;;;;;;;40.84;21.30;98342.28;5033785;28;20047;-82
2022/07/22 08:08:23;;;;;;;4.32;4.03;;;;;;;39.54;22.52;98348.31;5001649;28;20037;-82
2022/07/22 08:10:49;;;;;;;6.95;5.43;;;;;;;40.00;21.62;98350.28;5034801;28;20025;-83
2022/07/22 08:13:15;;;;;;;5.50;4.97;;;;;;;40.61;21.77;98350.41;5035557;28;20037;-82
2022/07/22 08:15:42;;;;;;;5.65;4.85;;;;;;;40.43;20.82;98345.41;5034532;28;20029;-82
2022/07/22 08:18:08;;;;;;;6.45;4.93;;;;;;;40.38;21.42;98359.84;5035429;28;20032;-82
2022/07/22 08:20:34;;;;;;;6.43;4.80;;;;;;;40.03;22.23;98343.47;5033687;28;20109;-82
2022/07/22 08:23:00;;;;;;;5.38;4.63;;;;;;;39.60;22.07;98351.97;5035001;28;20095;-82
2022/07/22 08:25:26;;;;;;;6.80;5.00;;;;;;;38.88;23.06;98340.94;5034404;28;20033;-82
2022/07/22 08:27:52;;;;;;;5.30;4.90;;;;;;;39.29;22.73;98353.22;5033960;28;20069;-82
2022/07/22 08:30:19;;;;;;;5.22;4.30;;;;;;;39.59;22.54;98347.53;5023619;28;20034;-83
2022/07/22 08:32:46;;;;;;;5.53;5.03;;;;;;;39.22;22.13;98355.88;5035710;28;20030;-82
2022/07/22 08:35:12;;;;;;;7.53;5.32;;;;;;;39.64;21.35;98348.78;5032809;28;20036;-82
2022/07/22 08:37:38;;;;;;;5.28;4.60;;;;;;;40.04;21.54;98359.44;5034913;28;20030;-83
2022/07/22 08:40:07;;;;;;;6.30;5.55;;;;;;;39.47;21.94;98351.78;5035254;28;20386;-83
2022/07/22 08:42:40;;;;;;;6.28;5.25;;;;;;;39.07;23.29;98355.44;5015641;28;20033;-82
2022/07/22 08:45:08;;;;;;;4.80;4.40;;;;;;;40.11;22.32;98361.72;5028949;28;20048;-82
2022/07/22 08:47:34;;;;;;;5.72;4.88;;;;;;;40.54;21.48;98358.91;5034657;28;20036;-82
2022/07/22 08:50:01;;;;;;;5.25;4.53;;;;;;;40.22;21.41;98370.22;5033884;28;20036;-82
2022/07/22 08:52:27;;;;;;;5.63;5.03;;;;;;;39.82;21.12;98366.13;5034659;28;20037;-82
2022/07/22 08:54:54;;;;;;;6.55;4.95;;;;;;;38.90;22.65;98366.22;5033347;28;20028;-83
2022/07/22 08:57:20;;;;;;;5.95;4.88;;;;;;;38.91;22.59;98371.44;5034157;28;20052;-82
2022/07/22 08:59:55;;;;;;;5.72;4.68;;;;;;;39.88;21.52;98374.72;5035271;28;20030;-82
2022/07/22 09:02:23;;;;;;;7.03;4.93;;;;;;;38.98;22.73;98379.50;5035268;28;20044;-79
2022/07/22 09:05:02;;;;;;;5.90;5.13;;;;;;;38.64;23.69;98369.44;5034218;28;20116;-81
2022/07/22 09:07:31;;;;;;;6.53;5.40;;;;;;;39.19;22.18;98372.09;5034991;28;20037;-82
2022/07/22 09:09:58;;;;;;;7.32;5.40;;;;;;;38.83;22.72;98369.66;5034439;28;20040;-82
2022/07/22 09:12:27;;;;;;;5.65;5.10;;;;;;;39.14;22.52;98370.00;5033627;28;20060;-82
2022/07/22 09:14:55;;;;;;;6.55;5.43;;;;;;;39.34;22.96;98368.84;5032118;28;20371;-83
2022/07/22 09:17:25;;;;;;;7.25;5.38;;;;;;;39.83;21.44;98366.91;5034137;28;20544;-83
2022/07/22 09:19:51;;;;;;;9.65;5.68;;;;;;;39.79;22.00;98369.31;5040762;28;20029;-82
2022/07/22 09:22:46;;;;;;;5.47;4.85;;;;;;;40.19;21.44;98367.66;5039515;28;20386;-82
2022/07/22 09:25:27;;;;;;;5.28;4.85;;;;;;;39.76;21.62;98367.50;5041901;28;20120;-82
2022/07/22 09:28:10;;;;;;;8.10;4.55;;;;;;;39.96;21.59;98370.72;5035734;28;20042;-83
2022/07/22 09:30:45;;;;;;;7.57;4.43;;;;;;;40.38;21.43;98375.00;5033893;28;20037;-82
2022/07/22 09:33:11;;;;;;;4.82;4.35;;;;;;;40.11;20.99;98378.19;5033719;28;20033;-82
2022/07/22 09:35:39;;;;;;;6.18;5.10;;;;;;;39.30;21.72;98380.63;5033248;28;20086;-82
2022/07/22 09:38:07;;;;;;;6.22;4.75;;;;;;;39.63;21.71;98376.75;5034433;28;20048;-82
2022/07/22 09:40:36;;;;;;;8.43;5.55;;;;;;;40.48;21.17;98378.34;5034079;28;20071;-82
2022/07/22 09:43:12;;;;;;;4.85;4.45;;;;;;;39.56;21.78;98371.56;5033967;28;20049;-82
2022/07/22 09:45:47;;;;;;;5.72;4.60;;;;;;;39.78;21.63;98382.13;5033902;28;20025;-82
2022/07/22 09:48:14;;;;;;;5.57;5.07;;;;;;;40.27;22.35;98380.09;5033687;28;20029;-82
2022/07/22 09:50:40;;;;;;;6.13;5.53;;;;;;;40.83;20.75;98375.28;5033982;28;20375;-83
2022/07/22 09:53:06;;;;;;;7.82;5.30;;;;;;;40.73;20.65;98374.09;5043742;28;20035;-82
2022/07/22 09:55:33;;;;;;;5.22;4.60;;;;;;;40.11;21.22;98376.09;5041457;28;20037;-82
2022/07/22 09:58:00;;;;;;;4.90;4.40;;;;;;;40.64;21.07;98378.13;5033728;28;20383;-83
2022/07/22 10:00:27;;;;;;;7.63;5.25;;;;;;;40.58;20.52;98382.41;5034121;28;20034;-83
2022/07/22 10:02:59;;;;;;;9.80;5.53;;;;;;;40.57;21.12;98375.09;5032557;28;20493;-82
2022/07/22 10:05:29;;;;;;;5.75;5.25;;;;;;;40.66;21.43;98380.47;5033525;28;20025;-83
2022/07/22 10:07:56;;;;;;;6.22;5.53;;;;;;;41.00;20.05;98384.53;5033608;28;20021;-82
2022/07/22 10:10:29;;;;;;;8.00;5.40;;;;;;;41.30;20.35;98384.38;5033573;28;20033;-83
2022/07/22 10:12:56;;;;;;;7.38;5.63;;;;;;;40.22;20.93;98381.72;5034068;28;20026;-82
2022/07/22 10:15:24;;;;;;;8.10;5.63;;;;;;;40.52;21.01;98381.69;5033678;28;20041;-83
2022/07/22 10:17:53;;;;;;;5.88;5.30;;;;;;;40.05;21.61;98377.47;5032912;28;20036;-83
2022/07/22 10:20:25;;;;;;;7.45;4.90;;;;;;;40.19;21.23;98371.28;5033189;28;20036;-83
2022/07/22 10:22:53;;;;;;;8.05;6.00;;;;;;;40.13;22.21;98373.47;5033350;28;20041;-82
2022/07/22 10:25:20;;;;;;;6.05;4.88;;;;;;;40.77;21.68;98379.56;5043935;28;20033;-84
2022/07/22 10:27:50;;;;;;;5.18;4.47;;;;;;;40.27;21.31;98383.78;5034544;28;20034;-82
2022/07/22 10:30:22;;;;;;;5.10;4.70;;;;;;;40.83;21.88;98372.41;5033665;28;20080;-82
2022/07/22 10:33:07;;;;;;;6.03;4.93;;;;;;;40.95;20.67;98379.59;5028980;28;20426;-82
2022/07/22 10:35:48;;;;;;;6.40;5.80;;;;;;;41.31;20.94;98380.19;5032643;28;20035;-83
2022/07/22 10:38:14;;;;;;;5.32;4.93;;;;;;;42.00;19.62;98380.09;5034919;28;20033;-83
2022/07/22 10:40:54;;;;;;;6.15;4.00;;;;;;;42.15;19.29;98377.50;5032740;28;20034;-83
2022/07/22 10:43:25;;;;;;;4.60;4.20;;;;;;;41.98;19.87;98380.66;5033281;28;20511;-82
2022/07/22 10:45:53;;;;;;;6.93;4.88;;;;;;;41.53;19.67;98376.94;5020147;28;20048;-82
2022/07/22 10:48:24;;;;;;;6.95;4.65;;;;;;;41.39;20.36;98380.31;5032551;28;20124;-83
2022/07/22 10:50:55;;;;;;;5.20;4.68;;;;;;;41.25;21.04;98373.69;5032972;28;20041;-83
2022/07/22 10:53:24;;;;;;;5.43;4.85;;;;;;;41.12;20.56;98374.41;5032921;28;20037;-83
2022/07/22 10:56:20;;;;;;;5.77;4.03;;;;;;;41.11;20.88;98372.84;5033092;28;20029;-83
2022/07/22 10:58:51;;;;;;;4.93;4.22;;;;;;;41.53;20.42;98361.75;5032518;28;20528;-83
2022/07/22 11:01:19;;;;;;;4.93;4.43;;;;;;;41.83;20.75;98365.97;5031948;28;20167;-83
2022/07/22 11:03:47;;;;;;;5.78;4.93;;;;;;;41.98;19.69;98362.56;5033753;28;20458;-83
2022/07/22 11:06:16;;;;;;;6.40;4.60;;;;;;;42.17;20.58;98357.53;5032949;28;20034;-83
2022/07/22 11:08:44;;;;;;;5.30;4.80;;;;;;;42.59;19.54;98353.56;5030951;28;20064;-83
2022/07/22 11:11:10;;;;;;;4.82;4.32;;;;;;;42.29;20.16;98360.97;5031850;28;20061;-83
2022/07/22 11:13:39;;;;;;;5.50;3.95;;;;;;;42.15;20.24;98350.75;5032589;28;20041;-83
2022/07/22 11:16:23;;;;;;;4.90;4.50;;;;;;;42.84;19.96;98350.41;5032378;28;20033;-83
2022/07/22 11:18:57;;;;;;;4.75;4.35;;;;;;;43.16;19.15;98348.13;5034082;28;20390;-82
2022/07/22 11:21:28;;;;;;;4.43;4.00;;;;;;;43.34;18.95;98349.31;5036777;28;20033;-83
2022/07/22 11:23:57;;;;;;;6.13;5.32;;;;;;;42.51;19.92;98344.00;5036315;28;20029;-84
2022/07/22 11:26:38;;;;;;;5.88;5.25;;;;;;;42.65;20.04;98339.00;5043258;28;20042;-83
2022/07/22 11:29:05;;;;;;;10.25;5.50;;;;;;;42.79;19.77;98348.41;5036464;28;20038;-84
2022/07/22 11:31:31;;;;;;;6.07;5.07;;;;;;;42.63;19.53;98339.56;5038016;28;20061;-83
2022/07/22 11:34:15;;;;;;;5.82;5.32;;;;;;;42.69;19.69;98339.41;5036569;28;20025;-84